sensor_id;sensor_type;location;lat;lon;timestamp;pressure;altitude;pressure_sealevel;temperature;humidity
7966;BME280;4028;43.272;26.932;2023-04-08T00:01:33;99527.00;;;7.81;100.00
7966;BME280;4028;43.272;26.932;2023-04-08T00:03:58;99524.72;;;7.88;100.00
7966;BME280;4028;43.272;26.932;2023-04-08T00:06:24;99528.13;;;8.01;100.00
7966;BME280;4028;43.272;26.932;2023-04-08T00:08:51;99529.75;;;7.79;100.00
7966;BME280;4028;43.272;26.932;2023-04-08T00:11:16;99536.00;;;7.90;100.00
7966;BME280;4028;43.272;26.932;2023-04-08T00:13:42;99518.03;;;7.84;100.00
7966;BME280;4028;43.272;26.932;2023-04-08T00:16:07;99525.19;;;7.81;100.00
7966;BME280;4028;43.272;26.932;2023-04-08T00:18:33;99520.53;;;7.85;100.00
7966;BME280;4028;43.272;26.932;2023-04-08T00:20:58;99522.72;;;7.91;100.00
7966;BME280;4028;43.272;26.932;2023-04-08T00:23:24;99520.69;;;7.84;100.00
7966;BME280;4028;43.272;26.932;2023-04-08T00:25:50;99496.81;;;7.63;100.00
7966;BME280;4028;43.272;26.932;2023-04-08T00:28:15;99519.31;;;7.67;100.00
7966;BME280;4028;43.272;26.932;2023-04-08T00:30:41;99511.03;;;7.60;100.00
7966;BME280;4028;43.272;26.932;2023-04-08T00:33:06;99515.84;;;7.77;100.00
7966;BME280;4028;43.272;26.932;2023-04-08T00:35:32;99502.09;;;7.85;100.00
7966;BME280;4028;43.272;26.932;2023-04-08T00:37:58;99509.41;;;7.81;100.00
7966;BME280;4028;43.272;26.932;2023-04-08T00:40:23;99507.84;;;7.68;100.00
7966;BME280;4028;43.272;26.932;2023-04-08T00:42:49;99511.19;;;7.70;100.00
7966;BME280;4028;43.272;26.932;2023-04-08T00:45:15;99510.34;;;7.69;100.00
7966;BME280;4028;43.272;26.932;2023-04-08T00:47:40;99511.31;;;7.68;100.00
7966;BME280;4028;43.272;26.932;2023-04-08T00:50:07;99514.44;;;7.73;100.00
7966;BME280;4028;43.272;26.932;2023-04-08T00:52:34;99514.31;;;7.75;100.00
7966;BME280;4028;43.272;26.932;2023-04-08T00:55:00;99510.00;;;7.74;100.00
7966;BME280;4028;43.272;26.932;2023-04-08T00:57:26;99497.41;;;7.66;100.00
7966;BME280;4028;43.272;26.932;2023-04-08T00:59:51;99500.16;;;7.65;100.00
7966;BME280;4028;43.272;26.932;2023-04-08T01:02:38;99506.47;;;7.62;100.00
7966;BME280;4028;43.272;26.932;2023-04-08T01:05:10;99498.84;;;7.70;100.00
7966;BME280;4028;43.272;26.932;2023-04-08T01:07:42;99475.97;;;7.71;100.00
7966;BME280;4028;43.272;26.932;2023-04-08T01:10:32;99493.00;;;7.89;100.00
7966;BME280;4028;43.272;26.932;2023-04-08T01:13:03;99489.88;;;7.73;100.00
7966;BME280;4028;43.272;26.932;2023-04-08T01:15:30;99481.44;;;7.56;100.00
7966;BME280;4028;43.272;26.932;2023-04-08T01:17:56;99487.19;;;7.50;100.00
7966;BME280;4028;43.272;26.932;2023-04-08T01:20:24;99501.59;;;7.69;100.00
7966;BME280;4028;43.272;26.932;2023-04-08T01:25:37;99494.91;;;7.76;100.00
7966;BME280;4028;43.272;26.932;2023-04-08T01:28:09;99499.22;;;7.88;100.00
7966;BME280;4028;43.272;26.932;2023-04-08T01:30:37;99496.22;;;7.70;100.00
7966;BME280;4028;43.272;26.932;2023-04-08T01:33:04;99491.88;;;7.58;100.00
7966;BME280;4028;43.272;26.932;2023-04-08T01:35:30;99495.22;;;7.60;100.00
7966;BME280;4028;43.272;26.932;2023-04-08T01:37:56;99490.44;;;7.54;100.00
7966;BME280;4028;43.272;26.932;2023-04-08T01:40:23;99493.75;;;7.45;100.00
7966;BME280;4028;43.272;26.932;2023-04-08T01:42:51;99496.16;;;7.48;100.00
7966;BME280;4028;43.272;26.932;2023-04-08T01:45:18;99499.97;;;7.44;100.00
7966;BME280;4028;43.272;26.932;2023-04-08T01:47:45;99489.66;;;7.29;100.00
7966;BME280;4028;43.272;26.932;2023-04-08T01:50:12;99503.56;;;7.43;100.00
7966;BME280;4028;43.272;26.932;2023-04-08T01:52:40;99489.19;;;7.36;100.00
7966;BME280;4028;43.272;26.932;2023-04-08T01:55:07;99499.50;;;7.50;100.00
7966;BME280;4028;43.272;26.932;2023-04-08T01:57:36;99501.78;;;7.43;100.00
7966;BME280;4028;43.272;26.932;2023-04-08T02:00:06;99498.09;;;7.57;100.00
7966;BME280;4028;43.272;26.932;2023-04-08T02:02:37;99481.91;;;7.50;100.00
7966;BME280;4028;43.272;26.932;2023-04-08T02:05:03;99500.38;;;7.62;100.00
7966;BME280;4028;43.272;26.932;2023-04-08T02:07:29;99451.84;;;7.42;100.00
7966;BME280;4028;43.272;26.932;2023-04-08T02:09:55;99494.63;;;7.56;100.00
7966;BME280;4028;43.272;26.932;2023-04-08T02:12:21;99481.56;;;7.44;100.00
7966;BME280;4028;43.272;26.932;2023-04-08T02:14:47;99490.66;;;7.51;100.00
7966;BME280;4028;43.272;26.932;2023-04-08T02:17:24;99493.19;;;7.52;100.00
7966;BME280;4028;43.272;26.932;2023-04-08T02:19:59;99496.41;;;7.56;100.00
7966;BME280;4028;43.272;26.932;2023-04-08T02:22:52;99459.91;;;7.51;100.00
7966;BME280;4028;43.272;26.932;2023-04-08T02:25:24;99460.97;;;7.38;100.00
7966;BME280;4028;43.272;26.932;2023-04-08T02:27:51;99493.31;;;7.62;100.00
7966;BME280;4028;43.272;26.932;2023-04-08T02:30:17;99490.44;;;7.54;100.00
7966;BME280;4028;43.272;26.932;2023-04-08T02:32:44;99486.22;;;7.51;100.00
7966;BME280;4028;43.272;26.932;2023-04-08T02:35:11;99487.31;;;7.49;100.00
7966;BME280;4028;43.272;26.932;2023-04-08T02:37:37;99490.44;;;7.54;100.00
7966;BME280;4028;43.272;26.932;2023-04-08T02:40:03;99488.03;;;7.51;100.00
7966;BME280;4028;43.272;26.932;2023-04-08T02:42:29;99484.81;;;7.47;100.00
7966;BME280;4028;43.272;26.932;2023-04-08T02:44:56;99480.03;;;7.52;100.00
7966;BME280;4028;43.272;26.932;2023-04-08T02:47:21;99478.97;;;7.66;100.00
7966;BME280;4028;43.272;26.932;2023-04-08T02:49:47;99485.53;;;7.61;100.00
7966;BME280;4028;43.272;26.932;2023-04-08T02:52:12;99480.38;;;7.48;100.00
7966;BME280;4028;43.272;26.932;2023-04-08T02:54:39;99488.97;;;7.50;100.00
7966;BME280;4028;43.272;26.932;2023-04-08T02:57:05;99486.47;;;7.48;100.00
7966;BME280;4028;43.272;26.932;2023-04-08T02:59:30;99488.72;;;7.42;100.00
7966;BME280;4028;43.272;26.932;2023-04-08T03:01:56;99488.97;;;7.39;100.00
7966;BME280;4028;43.272;26.932;2023-04-08T03:04:21;99483.81;;;7.37;100.00
7966;BME280;4028;43.272;26.932;2023-04-08T03:06:46;99481.06;;;7.39;100.00
7966;BME280;4028;43.272;26.932;2023-04-08T03:09:12;99479.13;;;7.41;100.00
7966;BME280;4028;43.272;26.932;2023-04-08T03:11:37;99489.44;;;7.44;100.00
7966;BME280;4028;43.272;26.932;2023-04-08T03:14:03;99488.00;;;7.40;100.00
7966;BME280;4028;43.272;26.932;2023-04-08T03:16:28;99482.16;;;7.47;100.00
7966;BME280;4028;43.272;26.932;2023-04-08T03:18:54;99489.50;;;7.66;100.00
7966;BME280;4028;43.272;26.932;2023-04-08T03:21:19;99486.97;;;7.65;100.00
7966;BME280;4028;43.272;26.932;2023-04-08T03:23:45;99492.94;;;7.55;100.00
7966;BME280;4028;43.272;26.932;2023-04-08T03:26:10;99496.41;;;7.56;100.00
7966;BME280;4028;43.272;26.932;2023-04-08T03:28:36;99500.00;;;7.55;100.00
7966;BME280;4028;43.272;26.932;2023-04-08T03:31:03;99500.97;;;7.54;100.00
7966;BME280;4028;43.272;26.932;2023-04-08T03:33:28;99503.63;;;7.65;100.00
7966;BME280;4028;43.272;26.932;2023-04-08T03:35:54;99512.13;;;7.58;100.00
7966;BME280;4028;43.272;26.932;2023-04-08T03:38:20;99510.66;;;7.53;100.00
7966;BME280;4028;43.272;26.932;2023-04-08T03:40:45;99504.75;;;7.39;100.00
7966;BME280;4028;43.272;26.932;2023-04-08T03:43:11;99508.94;;;7.41;100.00
7966;BME280;4028;43.272;26.932;2023-04-08T03:45:37;99515.16;;;7.40;100.00
7966;BME280;4028;43.272;26.932;2023-04-08T03:48:02;99518.75;;;7.39;100.00
7966;BME280;4028;43.272;26.932;2023-04-08T03:50:28;99515.75;;;7.33;100.00
7966;BME280;4028;43.272;26.932;2023-04-08T03:52:54;99518.81;;;7.26;100.00
7966;BME280;4028;43.272;26.932;2023-04-08T03:55:19;99527.00;;;7.35;100.00
7966;BME280;4028;43.272;26.932;2023-04-08T03:57:45;99519.31;;;7.32;100.00
7966;BME280;4028;43.272;26.932;2023-04-08T04:00:10;99512.00;;;7.24;100.00
7966;BME280;4028;43.272;26.932;2023-04-08T04:02:36;99507.44;;;7.26;100.00
7966;BME280;4028;43.272;26.932;2023-04-08T04:05:02;99516.59;;;7.33;100.00
7966;BME280;4028;43.272;26.932;2023-04-08T04:07:27;99515.16;;;7.40;100.00
7966;BME280;4028;43.272;26.932;2023-04-08T04:09:52;99522.34;;;7.38;100.00
7966;BME280;4028;43.272;26.932;2023-04-08T04:12:20;99532.25;;;7.35;100.00
7966;BME280;4028;43.272;26.932;2023-04-08T04:14:45;99523.41;;;7.36;100.00
7966;BME280;4028;43.272;26.932;2023-04-08T04:17:11;99524.69;;;7.30;100.00
7966;BME280;4028;43.272;26.932;2023-04-08T04:19:36;99522.88;;;7.19;100.00
7966;BME280;4028;43.272;26.932;2023-04-08T04:22:02;99541.34;;;7.30;100.00
7966;BME280;4028;43.272;26.932;2023-04-08T04:24:27;99538.66;;;7.19;100.00
7966;BME280;4028;43.272;26.932;2023-04-08T04:26:53;99546.44;;;7.21;100.00
7966;BME280;4028;43.272;26.932;2023-04-08T04:29:18;99542.00;;;7.21;100.00
7966;BME280;4028;43.272;26.932;2023-04-08T04:31:44;99539.88;;;7.26;100.00
7966;BME280;4028;43.272;26.932;2023-04-08T04:34:10;99538.94;;;7.27;100.00
7966;BME280;4028;43.272;26.932;2023-04-08T04:36:35;99530.59;;;7.34;100.00
7966;BME280;4028;43.272;26.932;2023-04-08T04:39:01;99506.03;;;7.22;100.00
7966;BME280;4028;43.272;26.932;2023-04-08T04:41:26;99542.78;;;7.35;100.00
7966;BME280;4028;43.272;26.932;2023-04-08T04:43:52;99544.25;;;7.39;100.00
7966;BME280;4028;43.272;26.932;2023-04-08T04:46:18;99490.16;;;7.11;100.00
7966;BME280;4028;43.272;26.932;2023-04-08T04:48:43;99549.72;;;7.36;100.00
7966;BME280;4028;43.272;26.932;2023-04-08T04:51:09;99544.72;;;7.33;100.00
7966;BME280;4028;43.272;26.932;2023-04-08T04:53:34;99544.91;;;7.29;100.00
7966;BME280;4028;43.272;26.932;2023-04-08T04:56:00;99501.25;;;7.03;100.00
7966;BME280;4028;43.272;26.932;2023-04-08T04:58:26;99546.72;;;7.29;100.00
7966;BME280;4028;43.272;26.932;2023-04-08T05:00:51;99549.56;;;7.26;100.00
7966;BME280;4028;43.272;26.932;2023-04-08T05:03:17;99552.81;;;7.29;100.00
7966;BME280;4028;43.272;26.932;2023-04-08T05:05:42;99521.66;;;7.12;100.00
7966;BME280;4028;43.272;26.932;2023-04-08T05:08:08;99555.25;;;7.33;100.00
7966;BME280;4028;43.272;26.932;2023-04-08T05:10:33;99555.41;;;7.42;100.00
7966;BME280;4028;43.272;26.932;2023-04-08T05:12:58;99560.22;;;7.48;100.00
7966;BME280;4028;43.272;26.932;2023-04-08T05:15:24;99544.22;;;7.27;100.00
7966;BME280;4028;43.272;26.932;2023-04-08T05:17:50;99562.50;;;7.29;100.00
7966;BME280;4028;43.272;26.932;2023-04-08T05:20:15;99562.78;;;7.37;100.00
7966;BME280;4028;43.272;26.932;2023-04-08T05:22:41;99566.03;;;7.41;100.00
7966;BME280;4028;43.272;26.932;2023-04-08T05:25:09;99564.13;;;7.43;100.00
7966;BME280;4028;43.272;26.932;2023-04-08T05:27:34;99552.97;;;7.39;100.00
7966;BME280;4028;43.272;26.932;2023-04-08T05:30:00;99561.06;;;7.60;100.00
7966;BME280;4028;43.272;26.932;2023-04-08T05:32:26;99573.06;;;7.64;100.00
7966;BME280;4028;43.272;26.932;2023-04-08T05:34:51;99555.31;;;7.55;100.00
7966;BME280;4028;43.272;26.932;2023-04-08T05:37:16;99568.97;;;7.60;100.00
7966;BME280;4028;43.272;26.932;2023-04-08T05:39:42;99574.28;;;7.71;100.00
7966;BME280;4028;43.272;26.932;2023-04-08T05:42:07;99569.00;;;7.71;100.00
7966;BME280;4028;43.272;26.932;2023-04-08T05:44:33;99577.75;;;7.72;100.00
7966;BME280;4028;43.272;26.932;2023-04-08T05:46:58;99575.16;;;7.83;100.00
7966;BME280;4028;43.272;26.932;2023-04-08T05:49:24;99570.94;;;7.80;100.00
7966;BME280;4028;43.272;26.932;2023-04-08T05:51:50;99568.69;;;7.87;100.00
7966;BME280;4028;43.272;26.932;2023-04-08T05:54:15;99567.97;;;7.85;100.00
7966;BME280;4028;43.272;26.932;2023-04-08T05:56:41;99562.84;;;7.84;100.00
7966;BME280;4028;43.272;26.932;2023-04-08T05:59:06;99569.66;;;7.97;100.00
7966;BME280;4028;43.272;26.932;2023-04-08T06:01:32;99570.34;;;7.88;100.00
7966;BME280;4028;43.272;26.932;2023-04-08T06:03:57;99572.41;;;7.85;100.00
7966;BME280;4028;43.272;26.932;2023-04-08T06:06:23;99573.13;;;7.87;100.00
7966;BME280;4028;43.272;26.932;2023-04-08T06:08:50;99568.59;;;8.00;100.00
7966;BME280;4028;43.272;26.932;2023-04-08T06:11:15;99580.34;;;7.96;100.00
7966;BME280;4028;43.272;26.932;2023-04-08T06:13:41;99580.22;;;7.97;100.00
7966;BME280;4028;43.272;26.932;2023-04-08T06:16:10;99581.16;;;7.96;100.00
7966;BME280;4028;43.272;26.932;2023-04-08T06:18:36;99582.63;;;8.00;100.00
7966;BME280;4028;43.272;26.932;2023-04-08T06:21:02;99546.06;;;7.85;100.00
7966;BME280;4028;43.272;26.932;2023-04-08T06:23:27;99577.84;;;8.17;100.00
7966;BME280;4028;43.272;26.932;2023-04-08T06:25:53;99588.50;;;8.04;100.00
7966;BME280;4028;43.272;26.932;2023-04-08T06:28:18;99582.38;;;8.03;100.00
7966;BME280;4028;43.272;26.932;2023-04-08T06:30:43;99582.84;;;7.97;100.00
7966;BME280;4028;43.272;26.932;2023-04-08T06:33:09;99579.16;;;8.00;100.00
7966;BME280;4028;43.272;26.932;2023-04-08T06:35:35;99576.88;;;8.06;100.00
7966;BME280;4028;43.272;26.932;2023-04-08T06:38:02;99572.84;;;8.25;100.00
7966;BME280;4028;43.272;26.932;2023-04-08T06:40:27;99572.75;;;8.38;100.00
7966;BME280;4028;43.272;26.932;2023-04-08T06:42:53;99573.69;;;8.48;100.00
7966;BME280;4028;43.272;26.932;2023-04-08T06:45:18;99570.94;;;8.49;100.00
7966;BME280;4028;43.272;26.932;2023-04-08T06:47:44;99565.91;;;8.69;100.00
7966;BME280;4028;43.272;26.932;2023-04-08T06:50:10;99549.84;;;8.61;100.00
7966;BME280;4028;43.272;26.932;2023-04-08T06:52:35;99538.34;;;8.62;100.00
7966;BME280;4028;43.272;26.932;2023-04-08T06:55:01;99560.97;;;8.87;100.00
7966;BME280;4028;43.272;26.932;2023-04-08T06:57:26;99568.84;;;8.98;100.00
7966;BME280;4028;43.272;26.932;2023-04-08T06:59:52;99574.09;;;9.09;100.00
7966;BME280;4028;43.272;26.932;2023-04-08T07:02:18;99571.50;;;8.98;100.00
7966;BME280;4028;43.272;26.932;2023-04-08T07:04:43;99570.78;;;8.96;100.00
7966;BME280;4028;43.272;26.932;2023-04-08T07:07:09;99578.78;;;9.05;100.00
7966;BME280;4028;43.272;26.932;2023-04-08T07:09:34;99581.91;;;9.10;100.00
7966;BME280;4028;43.272;26.932;2023-04-08T07:12:02;99576.50;;;9.12;100.00
7966;BME280;4028;43.272;26.932;2023-04-08T07:14:28;99590.66;;;9.22;100.00
7966;BME280;4028;43.272;26.932;2023-04-08T07:16:54;99570.56;;;9.31;100.00
7966;BME280;4028;43.272;26.932;2023-04-08T07:19:20;99571.25;;;9.44;100.00
7966;BME280;4028;43.272;26.932;2023-04-08T07:21:48;99580.09;;;9.54;100.00
7966;BME280;4028;43.272;26.932;2023-04-08T07:24:14;99582.47;;;9.57;100.00
7966;BME280;4028;43.272;26.932;2023-04-08T07:26:40;99574.81;;;9.54;100.00
7966;BME280;4028;43.272;26.932;2023-04-08T07:29:05;99587.25;;;9.63;100.00
7966;BME280;4028;43.272;26.932;2023-04-08T07:31:31;99590.88;;;9.62;100.00
7966;BME280;4028;43.272;26.932;2023-04-08T07:33:57;99580.84;;;9.45;100.00
7966;BME280;4028;43.272;26.932;2023-04-08T07:36:23;99594.59;;;9.28;100.00
7966;BME280;4028;43.272;26.932;2023-04-08T07:38:48;99595.00;;;9.12;100.00
7966;BME280;4028;43.272;26.932;2023-04-08T07:41:14;99569.31;;;9.03;100.00
7966;BME280;4028;43.272;26.932;2023-04-08T07:43:39;99585.97;;;9.15;100.00
7966;BME280;4028;43.272;26.932;2023-04-08T07:46:06;99600.91;;;9.36;100.00
7966;BME280;4028;43.272;26.932;2023-04-08T07:48:32;99609.09;;;9.33;100.00
7966;BME280;4028;43.272;26.932;2023-04-08T07:51:03;99603.22;;;9.30;100.00
7966;BME280;4028;43.272;26.932;2023-04-08T07:53:29;99598.53;;;9.33;100.00
7966;BME280;4028;43.272;26.932;2023-04-08T07:55:54;99574.16;;;9.30;100.00
7966;BME280;4028;43.272;26.932;2023-04-08T07:58:20;99608.63;;;9.60;100.00
7966;BME280;4028;43.272;26.932;2023-04-08T08:00:46;99605.84;;;9.62;100.00
7966;BME280;4028;43.272;26.932;2023-04-08T08:03:11;99604.03;;;9.74;100.00
7966;BME280;4028;43.272;26.932;2023-04-08T08:05:37;99595.81;;;9.77;100.00
7966;BME280;4028;43.272;26.932;2023-04-08T08:08:02;99612.72;;;9.85;100.00
7966;BME280;4028;43.272;26.932;2023-04-08T08:10:28;99605.00;;;9.73;100.00
7966;BME280;4028;43.272;26.932;2023-04-08T08:12:54;99605.00;;;9.94;100.00
7966;BME280;4028;43.272;26.932;2023-04-08T08:15:19;99607.97;;;10.00;100.00
7966;BME280;4028;43.272;26.932;2023-04-08T08:17:45;99536.31;;;9.82;100.00
7966;BME280;4028;43.272;26.932;2023-04-08T08:20:10;99603.84;;;10.28;100.00
7966;BME280;4028;43.272;26.932;2023-04-08T08:22:36;99597.38;;;10.42;100.00
7966;BME280;4028;43.272;26.932;2023-04-08T08:25:04;99599.81;;;10.55;96.73
7966;BME280;4028;43.272;26.932;2023-04-08T08:27:29;99601.75;;;10.53;97.38
7966;BME280;4028;43.272;26.932;2023-04-08T08:29:55;99577.09;;;10.52;97.79
7966;BME280;4028;43.272;26.932;2023-04-08T08:32:21;99600.25;;;10.90;95.36
7966;BME280;4028;43.272;26.932;2023-04-08T08:34:46;99595.91;;;10.99;93.43
7966;BME280;4028;43.272;26.932;2023-04-08T08:37:12;99600.16;;;11.11;93.52
7966;BME280;4028;43.272;26.932;2023-04-08T08:39:37;99595.53;;;11.13;92.36
7966;BME280;4028;43.272;26.932;2023-04-08T08:42:03;99598.06;;;11.25;90.89
7966;BME280;4028;43.272;26.932;2023-04-08T08:44:29;99592.22;;;11.40;89.13
7966;BME280;4028;43.272;26.932;2023-04-08T08:46:54;99596.44;;;11.62;84.67
7966;BME280;4028;43.272;26.932;2023-04-08T08:49:20;99582.63;;;11.59;85.76
7966;BME280;4028;43.272;26.932;2023-04-08T08:51:45;99598.41;;;11.99;81.76
7966;BME280;4028;43.272;26.932;2023-04-08T08:54:12;99603.53;;;12.20;82.78
7966;BME280;4028;43.272;26.932;2023-04-08T08:56:39;99592.78;;;12.59;79.47
7966;BME280;4028;43.272;26.932;2023-04-08T08:59:07;99596.97;;;12.89;75.52
7966;BME280;4028;43.272;26.932;2023-04-08T09:01:38;99602.44;;;13.15;69.29
7966;BME280;4028;43.272;26.932;2023-04-08T09:06:31;99599.84;;;13.50;67.74
7966;BME280;4028;43.272;26.932;2023-04-08T09:08:57;99590.97;;;13.60;67.93
7966;BME280;4028;43.272;26.932;2023-04-08T09:11:22;99587.22;;;13.88;64.89
7966;BME280;4028;43.272;26.932;2023-04-08T09:13:48;99584.69;;;14.04;65.46
7966;BME280;4028;43.272;26.932;2023-04-08T09:16:15;99580.75;;;14.43;62.90
7966;BME280;4028;43.272;26.932;2023-04-08T09:18:43;99575.94;;;14.64;61.91
7966;BME280;4028;43.272;26.932;2023-04-08T09:21:09;99572.56;;;14.96;59.19
7966;BME280;4028;43.272;26.932;2023-04-08T09:26:09;99573.66;;;15.60;57.92
7966;BME280;4028;43.272;26.932;2023-04-08T09:28:36;99573.88;;;15.83;55.08
7966;BME280;4028;43.272;26.932;2023-04-08T09:31:21;99567.06;;;15.89;54.90
7966;BME280;4028;43.272;26.932;2023-04-08T09:33:51;99564.88;;;15.76;54.54
7966;BME280;4028;43.272;26.932;2023-04-08T09:36:17;99550.22;;;15.89;55.57
7966;BME280;4028;43.272;26.932;2023-04-08T09:38:43;99526.31;;;16.20;54.91
7966;BME280;4028;43.272;26.932;2023-04-08T09:41:12;99544.69;;;16.62;52.81
7966;BME280;4028;43.272;26.932;2023-04-08T09:43:43;99551.38;;;16.58;52.23
7966;BME280;4028;43.272;26.932;2023-04-08T09:46:13;99555.19;;;16.80;51.06
7966;BME280;4028;43.272;26.932;2023-04-08T09:48:51;99553.38;;;16.64;51.14
7966;BME280;4028;43.272;26.932;2023-04-08T09:51:21;99551.41;;;16.97;50.63
7966;BME280;4028;43.272;26.932;2023-04-08T09:53:58;99562.03;;;16.66;50.90
7966;BME280;4028;43.272;26.932;2023-04-08T09:56:30;99555.81;;;16.34;51.92
7966;BME280;4028;43.272;26.932;2023-04-08T09:59:02;99560.47;;;16.41;52.77
7966;BME280;4028;43.272;26.932;2023-04-08T10:01:37;99556.41;;;16.53;52.07
7966;BME280;4028;43.272;26.932;2023-04-08T10:04:07;99559.53;;;16.73;52.21
7966;BME280;4028;43.272;26.932;2023-04-08T10:06:34;99544.34;;;16.65;51.61
7966;BME280;4028;43.272;26.932;2023-04-08T10:09:01;99547.06;;;16.96;50.34
7966;BME280;4028;43.272;26.932;2023-04-08T10:11:29;99553.13;;;16.90;49.67
7966;BME280;4028;43.272;26.932;2023-04-08T10:13:55;99542.84;;;17.10;48.83
7966;BME280;4028;43.272;26.932;2023-04-08T10:16:22;99530.84;;;16.98;51.24
7966;BME280;4028;43.272;26.932;2023-04-08T10:18:53;99549.75;;;16.96;50.57
7966;BME280;4028;43.272;26.932;2023-04-08T10:21:38;99544.75;;;16.93;48.37
7966;BME280;4028;43.272;26.932;2023-04-08T10:24:10;99505.31;;;16.95;47.73
7966;BME280;4028;43.272;26.932;2023-04-08T10:26:41;99541.50;;;17.37;47.32
7966;BME280;4028;43.272;26.932;2023-04-08T10:31:42;99536.38;;;17.27;46.92
7966;BME280;4028;43.272;26.932;2023-04-08T10:34:17;99542.84;;;17.10;46.18
7966;BME280;4028;43.272;26.932;2023-04-08T10:36:44;99545.34;;;16.72;46.66
7966;BME280;4028;43.272;26.932;2023-04-08T10:39:09;99538.84;;;16.75;47.61
7966;BME280;4028;43.272;26.932;2023-04-08T10:41:46;99536.31;;;17.04;47.35
7966;BME280;4028;43.272;26.932;2023-04-08T10:44:19;99525.72;;;16.88;46.68
7966;BME280;4028;43.272;26.932;2023-04-08T10:46:46;99542.34;;;17.06;46.99
7966;BME280;4028;43.272;26.932;2023-04-08T10:49:15;99543.22;;;16.99;46.35
7966;BME280;4028;43.272;26.932;2023-04-08T10:51:45;99547.56;;;16.52;46.96
7966;BME280;4028;43.272;26.932;2023-04-08T10:54:15;99538.19;;;16.56;48.04
7966;BME280;4028;43.272;26.932;2023-04-08T10:56:49;99537.47;;;16.71;47.09
7966;BME280;4028;43.272;26.932;2023-04-08T10:59:16;99531.63;;;16.20;47.53
7966;BME280;4028;43.272;26.932;2023-04-08T11:01:44;99526.63;;;16.17;48.08
7966;BME280;4028;43.272;26.932;2023-04-08T11:04:14;99526.25;;;16.36;48.08
7966;BME280;4028;43.272;26.932;2023-04-08T11:06:41;99529.06;;;16.43;46.91
7966;BME280;4028;43.272;26.932;2023-04-08T11:09:07;99526.25;;;16.36;47.41
7966;BME280;4028;43.272;26.932;2023-04-08T11:11:33;99498.97;;;16.09;47.86
7966;BME280;4028;43.272;26.932;2023-04-08T11:14:00;99522.13;;;16.25;47.97
7966;BME280;4028;43.272;26.932;2023-04-08T11:16:26;99522.97;;;16.18;48.14
7966;BME280;4028;43.272;26.932;2023-04-08T11:18:53;99521.59;;;16.30;47.97
7966;BME280;4028;43.272;26.932;2023-04-08T11:21:22;99517.59;;;16.81;47.11
7966;BME280;4028;43.272;26.932;2023-04-08T11:23:50;99518.69;;;16.95;45.47
7966;BME280;4028;43.272;26.932;2023-04-08T11:26:18;99498.91;;;17.04;45.87
7966;BME280;4028;43.272;26.932;2023-04-08T11:28:44;99502.31;;;17.44;45.94
7966;BME280;4028;43.272;26.932;2023-04-08T11:31:11;99498.25;;;17.48;45.34
7966;BME280;4028;43.272;26.932;2023-04-08T11:33:37;99500.00;;;17.18;44.94
7966;BME280;4028;43.272;26.932;2023-04-08T11:36:11;99497.63;;;17.00;44.46
7966;BME280;4028;43.272;26.932;2023-04-08T11:38:38;99494.25;;;16.98;44.08
7966;BME280;4028;43.272;26.932;2023-04-08T11:41:05;99495.16;;;16.91;44.42
7966;BME280;4028;43.272;26.932;2023-04-08T11:43:31;99489.94;;;16.58;43.96
7966;BME280;4028;43.272;26.932;2023-04-08T11:45:56;99489.28;;;16.56;44.30
7966;BME280;4028;43.272;26.932;2023-04-08T11:48:22;99491.75;;;16.74;44.88
7966;BME280;4028;43.272;26.932;2023-04-08T11:51:01;99485.63;;;16.88;44.64
7966;BME280;4028;43.272;26.932;2023-04-08T11:53:27;99478.72;;;17.02;44.38
7966;BME280;4028;43.272;26.932;2023-04-08T11:55:53;99491.19;;;17.09;42.17
7966;BME280;4028;43.272;26.932;2023-04-08T11:58:20;99485.25;;;17.22;42.56
7966;BME280;4028;43.272;26.932;2023-04-08T12:00:45;99482.41;;;17.24;42.06
7966;BME280;4028;43.272;26.932;2023-04-08T12:03:11;99476.84;;;17.48;41.99
7966;BME280;4028;43.272;26.932;2023-04-08T12:05:38;99480.81;;;17.75;41.78
7966;BME280;4028;43.272;26.932;2023-04-08T12:08:03;99483.19;;;17.70;42.58
7966;BME280;4028;43.272;26.932;2023-04-08T12:10:29;99472.00;;;17.29;45.81
7966;BME280;4028;43.272;26.932;2023-04-08T12:12:55;99470.09;;;17.14;46.14
7966;BME280;4028;43.272;26.932;2023-04-08T12:15:20;99478.09;;;16.60;48.10
7966;BME280;4028;43.272;26.932;2023-04-08T12:17:46;99475.81;;;16.49;48.52
7966;BME280;4028;43.272;26.932;2023-04-08T12:20:11;99472.75;;;16.60;49.31
7966;BME280;4028;43.272;26.932;2023-04-08T12:22:38;99471.22;;;16.58;49.35
7966;BME280;4028;43.272;26.932;2023-04-08T12:25:03;99464.47;;;16.78;48.54
7966;BME280;4028;43.272;26.932;2023-04-08T12:27:29;99454.88;;;16.92;47.44
7966;BME280;4028;43.272;26.932;2023-04-08T12:29:57;99459.69;;;16.97;48.25
7966;BME280;4028;43.272;26.932;2023-04-08T12:32:23;99450.25;;;17.09;47.10
7966;BME280;4028;43.272;26.932;2023-04-08T12:34:50;99455.66;;;17.01;47.27
7966;BME280;4028;43.272;26.932;2023-04-08T12:37:15;99452.63;;;17.04;46.79
7966;BME280;4028;43.272;26.932;2023-04-08T12:39:41;99452.47;;;17.05;46.25
7966;BME280;4028;43.272;26.932;2023-04-08T12:42:06;99443.31;;;17.00;46.62
7966;BME280;4028;43.272;26.932;2023-04-08T12:44:32;99445.69;;;17.18;46.29
7966;BME280;4028;43.272;26.932;2023-04-08T12:46:57;99447.22;;;17.12;45.60
7966;BME280;4028;43.272;26.932;2023-04-08T12:49:24;99441.28;;;17.02;46.48
7966;BME280;4028;43.272;26.932;2023-04-08T12:51:49;99436.59;;;16.81;45.72
7966;BME280;4028;43.272;26.932;2023-04-08T12:54:15;99443.75;;;16.49;46.68
7966;BME280;4028;43.272;26.932;2023-04-08T12:56:41;99440.63;;;16.37;46.58
7966;BME280;4028;43.272;26.932;2023-04-08T12:59:07;99446.53;;;16.17;47.26
7966;BME280;4028;43.272;26.932;2023-04-08T13:01:33;99438.19;;;16.28;47.83
7966;BME280;4028;43.272;26.932;2023-04-08T13:03:59;99438.63;;;16.31;47.35
7966;BME280;4028;43.272;26.932;2023-04-08T13:06:24;99436.97;;;16.38;47.69
7966;BME280;4028;43.272;26.932;2023-04-08T13:08:50;99443.97;;;16.40;46.48
7966;BME280;4028;43.272;26.932;2023-04-08T13:11:16;99443.81;;;16.33;46.77
7966;BME280;4028;43.272;26.932;2023-04-08T13:13:42;99438.38;;;16.18;47.70
7966;BME280;4028;43.272;26.932;2023-04-08T13:16:08;99444.53;;;16.19;47.60
7966;BME280;4028;43.272;26.932;2023-04-08T13:18:33;99419.97;;;15.84;47.58